Terminal Aerodrome Forecast
Issued by NWS

Home | Current Version | Previous Version | Text Only | Print | Product List | Glossary On
Versions: 1 2 3 4 5 6 7 8 9 10 11 12 13 14
000
FTUS43 KBIS 211700
TAFDIK
TAF
KDIK 211730Z 2118/2218 16014KT P6SM SKC
     FM220100 16009KT P6SM FEW250
     FM220600 26010KT P6SM SCT130
     FM220900 28014G22KT P6SM BKN110=

USA.gov is the U.S. government's official web portal to all federal, state and local government web resources and services.